createdAt,value
2022-09-03T00:02:04.284Z,2.33
2022-09-03T00:05:05.426Z,2.72
2022-09-03T00:07:40.132Z,3.58
2022-09-03T00:10:13.235Z,3.90
2022-09-03T00:12:44.787Z,4.38
2022-09-03T00:15:20.353Z,3.30
2022-09-03T00:17:57.916Z,2.60
2022-09-03T00:20:30.580Z,2.40
2022-09-03T00:23:01.451Z,3.38
2022-09-03T00:25:53.921Z,3.53
2022-09-03T00:28:26.313Z,5.38
2022-09-03T00:31:21.388Z,4.22
2022-09-03T00:33:48.693Z,5.07
2022-09-03T00:36:20.894Z,5.53
2022-09-03T00:38:47.797Z,3.90
2022-09-03T00:41:48.973Z,5.05
2022-09-03T00:44:31.220Z,5.47
2022-09-03T00:47:07.271Z,4.90
2022-09-03T00:49:56.118Z,5.85
2022-09-03T00:52:36.163Z,5.22
2022-09-03T00:55:03.257Z,4.82
2022-09-03T00:57:42.285Z,4.60
2022-09-03T01:00:15.630Z,5.00
2022-09-03T01:03:08.079Z,4.72
2022-09-03T01:06:03.585Z,4.90
2022-09-03T01:09:02.798Z,4.07
2022-09-03T01:11:51.563Z,5.05
2022-09-03T01:14:54.829Z,5.05
2022-09-03T01:18:04.032Z,7.10
2022-09-03T01:20:55.216Z,8.15
2022-09-03T01:23:22.354Z,9.50
2022-09-03T01:25:55.866Z,12.98
2022-09-03T01:28:40.538Z,9.85
2022-09-03T01:31:27.011Z,9.77
2022-09-03T01:34:04.580Z,3.80
2022-09-03T01:36:40.469Z,3.20
2022-09-03T01:39:14.173Z,3.45
2022-09-03T01:42:20.316Z,3.60
2022-09-03T01:45:01.868Z,3.45
2022-09-03T01:47:35.069Z,3.65
2022-09-03T01:50:07.797Z,3.22
2022-09-03T01:52:57.935Z,3.65
2022-09-03T01:55:44.545Z,2.88
2022-09-03T01:58:33.778Z,2.65
2022-09-03T02:01:05.736Z,2.72
2022-09-03T02:03:41.204Z,2.70
2022-09-03T02:06:12.761Z,2.58
2022-09-03T02:08:40.181Z,3.05
2022-09-03T02:11:09.268Z,3.20
2022-09-03T02:13:40.174Z,2.53
2022-09-03T02:16:16.954Z,2.35
2022-09-03T02:18:51.311Z,2.72
2022-09-03T02:21:20.400Z,2.28
2022-09-03T02:23:48.558Z,2.70
2022-09-03T02:26:19.396Z,2.85
2022-09-03T02:28:46.288Z,2.85
2022-09-03T02:31:13.401Z,2.53
2022-09-03T02:33:43.059Z,3.00
2022-09-03T02:36:12.157Z,2.70
2022-09-03T02:38:41.825Z,2.83
2022-09-03T02:41:09.105Z,2.35
2022-09-03T02:43:44.918Z,2.60
2022-09-03T02:46:22.764Z,2.83
2022-09-03T02:48:49.961Z,2.70
2022-09-03T02:51:17.070Z,3.00
2022-09-03T02:53:44.560Z,2.65
2022-09-03T02:56:12.110Z,2.80
2022-09-03T02:58:39.241Z,2.40
2022-09-03T03:01:06.272Z,2.80
2022-09-03T03:03:33.485Z,2.58
2022-09-03T03:06:04.896Z,2.92
2022-09-03T03:08:34.056Z,2.65
2022-09-03T03:11:02.114Z,2.65
2022-09-03T03:13:30.864Z,2.63
2022-09-03T03:15:59.284Z,2.40
2022-09-03T03:18:26.484Z,2.45
2022-09-03T03:20:53.812Z,2.50
2022-09-03T03:23:21.482Z,2.72
2022-09-03T03:25:48.782Z,2.80
2022-09-03T03:28:15.792Z,2.47
2022-09-03T03:30:43.115Z,2.53
2022-09-03T03:33:10.449Z,2.90
2022-09-03T03:35:37.664Z,3.08
2022-09-03T03:38:05.204Z,3.00
2022-09-03T03:40:32.270Z,2.55
2022-09-03T03:42:59.350Z,2.42
2022-09-03T03:45:26.432Z,2.72
2022-09-03T03:47:57.679Z,2.80
2022-09-03T03:50:25.644Z,2.60
2022-09-03T03:52:52.560Z,2.58
2022-09-03T03:55:19.665Z,3.20
2022-09-03T03:57:47.202Z,2.92
2022-09-03T04:00:15.193Z,2.53
2022-09-03T04:02:42.452Z,2.95
2022-09-03T04:05:09.739Z,2.63
2022-09-03T04:07:37.329Z,2.83
2022-09-03T04:10:04.833Z,2.80
2022-09-03T04:12:31.800Z,3.22
2022-09-03T04:14:58.700Z,2.72
2022-09-03T04:17:26.299Z,3.05
2022-09-03T04:19:53.225Z,2.35
2022-09-03T04:22:20.834Z,3.05
2022-09-03T04:24:47.897Z,3.28
2022-09-03T04:27:14.834Z,2.90
2022-09-03T04:29:41.781Z,2.70
2022-09-03T04:32:27.310Z,2.70
2022-09-03T04:34:54.192Z,2.70
2022-09-03T04:37:21.321Z,2.83
2022-09-03T04:39:48.275Z,2.83
2022-09-03T04:42:15.197Z,2.90
2022-09-03T04:44:42.738Z,2.85
2022-09-03T04:47:09.793Z,2.65
2022-09-03T04:49:36.756Z,2.40
2022-09-03T04:52:04.000Z,3.33
2022-09-03T04:54:31.878Z,3.22
2022-09-03T04:56:58.772Z,3.30
2022-09-03T04:59:25.901Z,3.05
2022-09-03T05:01:52.909Z,3.35
2022-09-03T05:04:20.032Z,3.65
2022-09-03T05:06:47.123Z,4.13
2022-09-03T05:09:14.160Z,4.80
2022-09-03T05:11:41.117Z,4.85
2022-09-03T05:14:11.865Z,5.10
2022-09-03T05:16:39.099Z,4.40
2022-09-03T05:19:06.187Z,4.80
2022-09-03T05:21:33.773Z,4.88
2022-09-03T05:24:01.667Z,4.72
2022-09-03T05:26:34.315Z,4.68
2022-09-03T05:29:04.395Z,4.00
2022-09-03T05:31:32.032Z,3.95
2022-09-03T05:34:00.659Z,3.53
2022-09-03T05:36:30.200Z,4.05
2022-09-03T05:38:58.913Z,3.78
2022-09-03T05:41:27.148Z,3.47
2022-09-03T05:43:56.023Z,3.47
2022-09-03T05:46:28.122Z,4.30
2022-09-03T05:48:55.259Z,5.05
2022-09-03T05:51:22.406Z,4.63
2022-09-03T05:53:49.724Z,3.25
2022-09-03T05:56:18.889Z,3.88
2022-09-03T05:58:48.328Z,3.88
2022-09-03T06:01:21.946Z,3.95
2022-09-03T06:03:57.875Z,3.45
2022-09-03T06:06:26.143Z,3.55
2022-09-03T06:08:55.229Z,3.90
2022-09-03T06:11:26.746Z,3.35
2022-09-03T06:13:55.417Z,3.60
2022-09-03T06:16:27.205Z,3.60
2022-09-03T06:19:00.653Z,3.20
2022-09-03T06:21:28.759Z,3.15
2022-09-03T06:23:59.725Z,2.95
2022-09-03T06:26:29.268Z,3.30
2022-09-03T06:28:57.330Z,3.55
2022-09-03T06:31:25.069Z,3.63
2022-09-03T06:33:53.750Z,3.88
2022-09-03T06:36:22.709Z,4.05
2022-09-03T06:38:55.585Z,4.53
2022-09-03T06:41:28.051Z,4.43
2022-09-03T06:44:04.562Z,4.88
2022-09-03T06:46:34.919Z,4.20
2022-09-03T06:49:02.135Z,6.35
2022-09-03T06:51:30.545Z,6.97
2022-09-03T06:54:04.288Z,6.43
2022-09-03T06:56:37.382Z,5.90
2022-09-03T06:59:13.689Z,6.25
2022-09-03T07:01:43.656Z,6.95
2022-09-03T07:04:13.129Z,7.07
2022-09-03T07:06:42.096Z,6.70
2022-09-03T07:09:10.619Z,6.82
2022-09-03T07:11:39.212Z,7.50
2022-09-03T07:14:06.095Z,7.70
2022-09-03T07:16:35.525Z,8.00
2022-09-03T07:19:04.728Z,8.05
2022-09-03T07:21:34.156Z,7.90
2022-09-03T07:24:01.110Z,8.18
2022-09-03T07:26:30.611Z,7.45
2022-09-03T07:28:58.318Z,8.07
2022-09-03T07:31:32.071Z,7.72
2022-09-03T07:34:10.101Z,7.40
2022-09-03T07:36:43.106Z,7.38
2022-09-03T07:39:12.364Z,7.22
2022-09-03T07:41:43.331Z,6.65
2022-09-03T07:44:10.598Z,7.03
2022-09-03T07:46:39.271Z,6.38
2022-09-03T07:49:06.539Z,7.03
2022-09-03T07:51:35.912Z,6.10
2022-09-03T07:54:06.991Z,5.65
2022-09-03T07:56:35.914Z,5.75
2022-09-03T07:59:04.025Z,5.55
2022-09-03T08:01:32.860Z,5.28
2022-09-03T08:04:00.539Z,6.10
2022-09-03T08:06:28.608Z,5.75
2022-09-03T08:09:05.060Z,5.10
2022-09-03T08:11:36.296Z,4.05
2022-09-03T08:14:13.945Z,3.80
2022-09-03T08:16:43.367Z,4.40
2022-09-03T08:19:12.101Z,4.45
2022-09-03T08:21:41.864Z,2.67
2022-09-03T08:24:09.101Z,2.80
2022-09-03T08:26:38.194Z,2.72
2022-09-03T08:29:06.197Z,3.20
2022-09-03T08:31:34.386Z,3.15
2022-09-03T08:34:06.789Z,2.90
2022-09-03T08:36:38.721Z,2.80
2022-09-03T08:39:10.963Z,3.05
2022-09-03T08:41:53.265Z,2.88
2022-09-03T08:44:47.187Z,2.83
2022-09-03T08:47:23.078Z,11.73
2022-09-03T08:49:59.928Z,5.30
2022-09-03T08:52:33.235Z,4.97
2022-09-03T08:55:27.457Z,3.08
2022-09-03T08:58:16.305Z,3.60
2022-09-03T09:00:49.629Z,3.08
2022-09-03T09:03:48.659Z,2.25
2022-09-03T09:06:27.893Z,2.10
2022-09-03T09:09:13.609Z,2.63
2022-09-03T09:11:59.678Z,2.42
2022-09-03T09:14:45.906Z,1.70
2022-09-03T09:17:22.404Z,1.50
2022-09-03T09:20:16.866Z,1.63
2022-09-03T09:22:47.624Z,1.48
2022-09-03T09:25:22.510Z,1.80
2022-09-03T09:28:17.400Z,1.50
2022-09-03T09:30:47.633Z,1.33
2022-09-03T09:33:16.505Z,1.40
2022-09-03T09:35:44.208Z,1.58
2022-09-03T09:38:12.185Z,1.13
2022-09-03T09:40:45.135Z,1.55
2022-09-03T09:43:16.677Z,1.20
2022-09-03T09:45:46.945Z,3.10
2022-09-03T09:48:31.562Z,1.10
2022-09-03T09:51:06.335Z,1.23
2022-09-03T09:53:35.153Z,1.10
2022-09-03T09:56:03.244Z,1.02
2022-09-03T09:58:32.042Z,1.20
2022-09-03T10:01:13.465Z,1.38
2022-09-03T10:03:51.486Z,1.40
2022-09-03T10:06:36.930Z,1.30
2022-09-03T10:09:12.095Z,1.08
2022-09-03T10:11:42.739Z,1.13
2022-09-03T10:14:32.627Z,1.10
2022-09-03T10:17:24.927Z,1.20
2022-09-03T10:20:37.349Z,1.00
2022-09-03T10:23:25.790Z,1.15
2022-09-03T10:26:15.282Z,1.20
2022-09-03T10:28:43.248Z,0.98
2022-09-03T10:31:13.751Z,1.20
2022-09-03T10:33:55.492Z,1.20
2022-09-03T10:36:37.145Z,0.95
2022-09-03T10:39:29.040Z,1.00
2022-09-03T10:42:08.486Z,1.30
2022-09-03T10:44:38.799Z,1.15
2022-09-03T10:47:57.725Z,0.98
2022-09-03T10:50:29.241Z,0.90
2022-09-03T10:52:59.983Z,0.93
2022-09-03T10:55:42.361Z,1.30
2022-09-03T10:58:38.258Z,1.50
2022-09-03T11:01:11.205Z,1.17
2022-09-03T11:04:07.637Z,1.42
2022-09-03T11:06:47.104Z,1.00
2022-09-03T11:09:35.948Z,1.10
2022-09-03T11:12:17.782Z,1.33
2022-09-03T11:14:47.229Z,1.15
2022-09-03T11:17:25.460Z,1.17
2022-09-03T11:20:11.819Z,1.08
2022-09-03T11:22:39.375Z,1.25
2022-09-03T11:25:07.671Z,1.20
2022-09-03T11:27:56.411Z,1.25
2022-09-03T11:30:34.442Z,1.05
2022-09-03T11:33:07.864Z,1.23
2022-09-03T11:35:34.987Z,1.10
2022-09-03T11:38:03.210Z,1.30
2022-09-03T11:40:39.479Z,1.35
2022-09-03T11:43:13.065Z,1.45
2022-09-03T11:45:40.458Z,1.30
2022-09-03T11:48:38.294Z,1.42
2022-09-03T11:51:21.429Z,1.25
2022-09-03T11:53:59.179Z,1.10
2022-09-03T11:56:26.479Z,1.70
2022-09-03T11:59:17.786Z,1.30
2022-09-03T12:01:59.067Z,1.20
2022-09-03T12:04:37.022Z,1.63
2022-09-03T12:07:41.565Z,1.55
2022-09-03T12:10:11.700Z,2.33
2022-09-03T12:13:17.083Z,1.35
2022-09-03T12:16:08.725Z,1.40
2022-09-03T12:18:37.137Z,1.00
2022-09-03T12:21:08.488Z,1.40
2022-09-03T12:23:50.066Z,1.05
2022-09-03T12:26:20.007Z,1.33
2022-09-03T12:28:52.007Z,1.08
2022-09-03T12:31:30.708Z,1.30
2022-09-03T12:34:03.562Z,2.85
2022-09-03T12:36:45.772Z,1.25
2022-09-03T12:39:15.872Z,1.00
2022-09-03T12:42:03.836Z,1.38
2022-09-03T12:44:35.135Z,1.10
2022-09-03T12:49:56.943Z,1.20
2022-09-03T12:52:42.026Z,1.00
2022-09-03T12:55:41.698Z,1.40
2022-09-03T12:58:24.791Z,1.30
2022-09-03T13:01:13.541Z,0.95
2022-09-03T13:03:59.739Z,1.20
2022-09-03T13:06:31.475Z,1.60
2022-09-03T13:09:03.843Z,1.20
2022-09-03T13:11:34.303Z,1.48
2022-09-03T13:14:10.244Z,1.27
2022-09-03T13:16:49.215Z,1.23
2022-09-03T13:19:36.547Z,1.20
2022-09-03T13:22:15.393Z,1.08
2022-09-03T13:25:20.280Z,1.20
2022-09-03T13:27:54.119Z,1.52
2022-09-03T13:30:23.419Z,1.48
2022-09-03T13:32:59.484Z,1.58
2022-09-03T13:35:50.026Z,1.60
2022-09-03T13:38:23.123Z,1.60
2022-09-03T13:40:58.766Z,2.40
2022-09-03T13:43:53.869Z,2.33
2022-09-03T13:46:42.217Z,2.15
2022-09-03T13:49:36.355Z,2.50
2022-09-03T13:52:08.779Z,2.95
2022-09-03T13:54:49.181Z,2.58
2022-09-03T13:57:22.950Z,2.30
2022-09-03T13:59:58.390Z,2.28
2022-09-03T14:02:33.568Z,2.80
2022-09-03T14:05:25.200Z,2.72
2022-09-03T14:08:02.489Z,2.97
2022-09-03T14:10:53.735Z,3.20
2022-09-03T14:13:20.909Z,3.38
2022-09-03T14:16:14.362Z,3.63
2022-09-03T14:19:04.006Z,4.00
2022-09-03T14:21:39.161Z,3.03
2022-09-03T14:24:31.836Z,3.17
2022-09-03T14:27:02.383Z,2.80
2022-09-03T14:29:34.437Z,3.50
2022-09-03T14:32:27.706Z,3.65
2022-09-03T14:35:07.003Z,3.95
2022-09-03T14:37:55.327Z,3.60
2022-09-03T14:40:30.767Z,4.15
2022-09-03T14:43:45.791Z,3.75
2022-09-03T14:46:38.756Z,3.67
2022-09-03T14:49:20.956Z,3.53
2022-09-03T14:51:51.155Z,3.70
2022-09-03T14:54:45.803Z,4.10
2022-09-03T14:57:40.862Z,4.07
2022-09-03T15:00:20.175Z,4.45
2022-09-03T15:03:22.817Z,4.00
2022-09-03T15:05:58.761Z,3.30
2022-09-03T15:08:40.697Z,3.42
2022-09-03T15:11:29.842Z,3.30
2022-09-03T15:14:20.298Z,3.88
2022-09-03T15:16:56.093Z,4.00
2022-09-03T15:19:36.918Z,3.90
2022-09-03T15:22:35.234Z,3.90
2022-09-03T15:25:32.072Z,4.30
2022-09-03T15:28:07.655Z,62.05
2022-09-03T15:30:47.443Z,89.32
2022-09-03T15:33:30.835Z,77.15
2022-09-03T15:36:12.537Z,59.00
2022-09-03T15:38:51.128Z,25.75
2022-09-03T15:41:28.437Z,6.53
2022-09-03T15:43:59.744Z,5.82
2022-09-03T15:46:29.952Z,5.22
2022-09-03T15:49:02.847Z,4.38
2022-09-03T15:51:36.091Z,4.30
2022-09-03T15:54:19.568Z,4.70
2022-09-03T15:56:52.799Z,5.07
2022-09-03T15:59:40.511Z,6.30
2022-09-03T16:02:12.766Z,7.50
2022-09-03T16:04:48.973Z,5.03
2022-09-03T16:07:38.050Z,5.05
2022-09-03T16:10:26.808Z,5.50
2022-09-03T16:13:25.489Z,6.82
2022-09-03T16:16:43.696Z,5.50
2022-09-03T16:19:22.705Z,6.28
2022-09-03T16:22:00.523Z,6.05
2022-09-03T16:24:30.275Z,7.60
2022-09-03T16:27:21.840Z,5.72
2022-09-03T16:30:03.279Z,6.10
2022-09-03T16:32:54.260Z,6.03
2022-09-03T16:35:27.776Z,5.85
2022-09-03T16:38:13.410Z,7.05
2022-09-03T16:41:03.978Z,8.07
2022-09-03T16:43:50.534Z,6.75
2022-09-03T16:46:20.396Z,4.70
2022-09-03T16:49:26.908Z,5.93
2022-09-03T16:52:10.612Z,5.70
2022-09-03T16:54:44.225Z,5.40
2022-09-03T16:57:37.661Z,4.63
2022-09-03T17:00:14.690Z,6.65
2022-09-03T17:03:26.039Z,4.97
2022-09-03T17:06:08.258Z,4.68
2022-09-03T17:08:53.613Z,5.60
2022-09-03T17:11:38.832Z,5.80
2022-09-03T17:14:18.656Z,5.07
2022-09-03T17:17:03.881Z,5.07
2022-09-03T17:19:43.630Z,5.28
2022-09-03T17:22:16.449Z,6.90
2022-09-03T17:24:52.672Z,7.38
2022-09-03T17:27:31.800Z,4.63
2022-09-03T17:30:24.059Z,4.70
2022-09-03T17:33:08.142Z,5.50
2022-09-03T17:35:46.608Z,4.43
2022-09-03T17:38:38.070Z,5.00
2022-09-03T17:41:13.957Z,5.03
2022-09-03T17:44:06.543Z,4.50
2022-09-03T17:47:04.549Z,4.47
2022-09-03T17:49:44.858Z,5.00
2022-09-03T17:52:39.233Z,5.05
2022-09-03T17:55:30.996Z,5.03
2022-09-03T17:58:26.438Z,4.75
2022-09-03T18:01:01.318Z,6.00
2022-09-03T18:03:40.152Z,5.93
2022-09-03T18:06:10.646Z,5.68
2022-09-03T18:08:46.256Z,7.78
2022-09-03T18:11:29.389Z,7.78
2022-09-03T18:14:24.587Z,5.88
2022-09-03T18:17:03.229Z,6.95
2022-09-03T18:20:06.959Z,6.40
2022-09-03T18:23:14.975Z,5.97
2022-09-03T18:26:04.867Z,5.57
2022-09-03T18:29:01.744Z,4.75
2022-09-03T18:31:47.371Z,6.05
2022-09-03T18:34:33.043Z,5.32
2022-09-03T18:37:18.645Z,7.65
2022-09-03T18:40:05.311Z,8.10
2022-09-03T18:43:20.229Z,8.52
2022-09-03T18:47:47.475Z,8.68
2022-09-03T18:49:51.986Z,6.88
2022-09-03T18:52:44.231Z,5.70
2022-09-03T18:55:52.972Z,5.97
2022-09-03T18:58:54.968Z,5.55
2022-09-03T19:01:53.768Z,4.68
2022-09-03T19:04:48.613Z,5.32
2022-09-03T19:07:39.867Z,5.50
2022-09-03T19:10:44.143Z,4.63
2022-09-03T19:13:30.034Z,4.90
2022-09-03T19:16:18.725Z,4.65
2022-09-03T19:19:19.949Z,4.65
2022-09-03T19:22:09.925Z,4.78
2022-09-03T19:24:55.815Z,6.15
2022-09-03T19:27:56.916Z,6.70
2022-09-03T19:30:50.417Z,11.02
2022-09-03T19:33:39.489Z,20.85
2022-09-03T19:36:43.701Z,24.73
2022-09-03T19:39:47.744Z,20.05
2022-09-03T19:43:21.388Z,16.02
2022-09-03T19:46:21.800Z,19.48
2022-09-03T19:49:30.177Z,25.33
2022-09-03T19:52:15.983Z,22.63
2022-09-03T19:55:01.390Z,20.35
2022-09-03T19:57:47.800Z,21.40
2022-09-03T20:00:33.617Z,17.05
2022-09-03T20:03:20.463Z,16.27
2022-09-03T20:06:10.747Z,16.10
2022-09-03T20:08:57.232Z,13.63
2022-09-03T20:11:27.797Z,13.38
2022-09-03T20:14:13.785Z,12.27
2022-09-03T20:17:03.393Z,12.98
2022-09-03T20:19:55.132Z,14.95
2022-09-03T20:22:40.614Z,27.05
2022-09-03T20:25:47.386Z,26.60
2022-09-03T20:28:46.212Z,24.13
2022-09-03T20:31:25.184Z,19.20
2022-09-03T20:34:01.112Z,16.20
2022-09-03T20:37:05.606Z,14.75
2022-09-03T20:39:54.069Z,12.55
2022-09-03T20:42:39.379Z,9.80
2022-09-03T20:45:23.304Z,12.10
2022-09-03T20:48:05.764Z,9.80
2022-09-03T20:50:53.364Z,10.57
2022-09-03T20:53:45.425Z,12.88
2022-09-03T20:56:24.967Z,11.07
2022-09-03T20:59:01.231Z,9.98
2022-09-03T21:01:34.393Z,10.32
2022-09-03T21:04:31.928Z,10.35
2022-09-03T21:07:22.398Z,11.50
2022-09-03T21:10:27.844Z,11.48
2022-09-03T21:13:11.789Z,17.52
2022-09-03T21:15:56.503Z,18.60
2022-09-03T21:18:33.233Z,16.85
2022-09-03T21:21:27.663Z,16.48
2022-09-03T21:24:08.814Z,14.00
2022-09-03T21:26:41.874Z,14.02
2022-09-03T21:29:13.524Z,16.02
2022-09-03T21:32:39.683Z,14.05
2022-09-03T21:35:18.209Z,14.65
2022-09-03T21:37:51.351Z,14.80
2022-09-03T21:40:24.480Z,13.25
2022-09-03T21:42:59.924Z,15.15
2022-09-03T21:45:39.296Z,19.10
2022-09-03T21:48:09.494Z,17.98
2022-09-03T21:50:45.704Z,18.73
2022-09-03T21:53:38.932Z,17.98
2022-09-03T21:56:25.240Z,19.75
2022-09-03T21:59:08.292Z,17.75
2022-09-03T22:01:49.788Z,20.08
2022-09-03T22:04:16.725Z,7.80
2022-09-03T22:07:11.048Z,9.02
2022-09-03T22:09:55.052Z,7.28
2022-09-03T22:12:41.038Z,7.93
2022-09-03T22:15:13.339Z,9.90
2022-09-03T22:17:47.088Z,10.65
2022-09-03T22:20:15.935Z,11.02
2022-09-03T22:22:58.329Z,9.80
2022-09-03T22:25:58.982Z,11.00
2022-09-03T22:28:40.761Z,10.27
2022-09-03T22:31:21.689Z,9.57
2022-09-03T22:34:02.853Z,10.63
2022-09-03T22:36:54.486Z,7.25
2022-09-03T22:39:27.675Z,8.25
2022-09-03T22:42:23.715Z,7.22
2022-09-03T22:45:21.336Z,8.82
2022-09-03T22:48:20.319Z,11.55
2022-09-03T22:50:57.205Z,10.43
2022-09-03T22:53:50.091Z,8.00
2022-09-03T22:56:22.043Z,7.57
2022-09-03T22:58:52.959Z,5.53
2022-09-03T23:01:25.382Z,7.32
2022-09-03T23:04:04.419Z,6.28
2022-09-03T23:06:39.183Z,5.75
2022-09-03T23:09:15.909Z,4.85
2022-09-03T23:11:47.978Z,4.78
2022-09-03T23:14:22.514Z,4.97
2022-09-03T23:16:56.682Z,5.65
2022-09-03T23:19:50.385Z,9.90
2022-09-03T23:22:28.029Z,8.68
2022-09-03T23:25:36.427Z,11.75
2022-09-03T23:28:24.263Z,14.30
2022-09-03T23:30:51.768Z,18.30
2022-09-03T23:33:18.930Z,19.60
2022-09-03T23:35:55.248Z,22.90
2022-09-03T23:38:38.300Z,16.75
2022-09-03T23:41:07.937Z,14.48
2022-09-03T23:43:42.840Z,13.75
2022-09-03T23:46:32.818Z,12.48
2022-09-03T23:49:16.604Z,14.55
2022-09-03T23:51:46.486Z,15.25
2022-09-03T23:54:13.906Z,24.55
2022-09-03T23:57:07.292Z,23.00
2022-09-03T23:59:46.553Z,24.48
